sensor_id;sensor_type;location;lat;lon;timestamp;P1;durP1;ratioP1;P2;durP2;ratioP2
64795;SDS011;51229;51.980;6.722;2022-09-09T00:01:31;2.58;;;1.02;;
64795;SDS011;51229;51.980;6.722;2022-09-09T00:12:54;2.80;;;1.00;;
64795;SDS011;51229;51.980;6.722;2022-09-09T00:15:48;3.95;;;1.15;;
64795;SDS011;51229;51.980;6.722;2022-09-09T00:18:25;2.22;;;0.90;;
64795;SDS011;51229;51.980;6.722;2022-09-09T00:21:15;3.22;;;1.08;;
64795;SDS011;51229;51.980;6.722;2022-09-09T00:23:55;2.15;;;1.20;;
64795;SDS011;51229;51.980;6.722;2022-09-09T00:32:18;3.10;;;1.05;;
64795;SDS011;51229;51.980;6.722;2022-09-09T00:34:47;2.22;;;1.10;;
64795;SDS011;51229;51.980;6.722;2022-09-09T00:37:24;3.78;;;1.30;;
64795;SDS011;51229;51.980;6.722;2022-09-09T00:39:51;2.92;;;1.20;;
64795;SDS011;51229;51.980;6.722;2022-09-09T00:50:17;3.17;;;1.23;;
64795;SDS011;51229;51.980;6.722;2022-09-09T00:55:41;3.33;;;1.48;;
64795;SDS011;51229;51.980;6.722;2022-09-09T00:58:25;2.22;;;1.20;;
64795;SDS011;51229;51.980;6.722;2022-09-09T01:00:56;2.78;;;1.30;;
64795;SDS011;51229;51.980;6.722;2022-09-09T01:06:14;2.65;;;1.15;;
64795;SDS011;51229;51.980;6.722;2022-09-09T01:14:35;2.20;;;1.30;;
64795;SDS011;51229;51.980;6.722;2022-09-09T01:17:32;2.97;;;1.30;;
64795;SDS011;51229;51.980;6.722;2022-09-09T01:20:19;2.30;;;1.23;;
64795;SDS011;51229;51.980;6.722;2022-09-09T01:28:35;3.38;;;1.58;;
64795;SDS011;51229;51.980;6.722;2022-09-09T01:31:07;2.30;;;1.30;;
64795;SDS011;51229;51.980;6.722;2022-09-09T01:33:41;3.65;;;1.50;;
64795;SDS011;51229;51.980;6.722;2022-09-09T01:36:51;1.42;;;1.10;;
64795;SDS011;51229;51.980;6.722;2022-09-09T01:39:00;4.55;;;1.40;;
64795;SDS011;51229;51.980;6.722;2022-09-09T01:41:26;3.22;;;1.58;;
64795;SDS011;51229;51.980;6.722;2022-09-09T01:44:02;3.20;;;1.30;;
64795;SDS011;51229;51.980;6.722;2022-09-09T01:46:31;2.15;;;1.30;;
64795;SDS011;51229;51.980;6.722;2022-09-09T01:48:58;3.10;;;1.30;;
64795;SDS011;51229;51.980;6.722;2022-09-09T01:51:26;2.40;;;1.15;;
64795;SDS011;51229;51.980;6.722;2022-09-09T01:53:56;3.85;;;1.45;;
64795;SDS011;51229;51.980;6.722;2022-09-09T01:59:13;1.98;;;1.17;;
64795;SDS011;51229;51.980;6.722;2022-09-09T02:04:41;1.90;;;1.00;;
64795;SDS011;51229;51.980;6.722;2022-09-09T02:10:23;2.53;;;1.50;;
64795;SDS011;51229;51.980;6.722;2022-09-09T02:13:12;3.75;;;1.30;;
64795;SDS011;51229;51.980;6.722;2022-09-09T02:15:55;2.67;;;1.50;;
64795;SDS011;51229;51.980;6.722;2022-09-09T02:18:39;2.35;;;1.58;;
64795;SDS011;51229;51.980;6.722;2022-09-09T02:21:12;3.15;;;1.60;;
64795;SDS011;51229;51.980;6.722;2022-09-09T02:23:39;3.13;;;1.88;;
64795;SDS011;51229;51.980;6.722;2022-09-09T02:26:10;3.20;;;1.77;;
64795;SDS011;51229;51.980;6.722;2022-09-09T02:28:40;4.00;;;1.90;;
64795;SDS011;51229;51.980;6.722;2022-09-09T02:31:07;3.97;;;1.83;;
64795;SDS011;51229;51.980;6.722;2022-09-09T02:33:46;2.65;;;1.58;;
64795;SDS011;51229;51.980;6.722;2022-09-09T02:36:17;4.07;;;1.80;;
64795;SDS011;51229;51.980;6.722;2022-09-09T02:38:46;3.72;;;2.05;;
64795;SDS011;51229;51.980;6.722;2022-09-09T02:41:18;3.67;;;2.20;;
64795;SDS011;51229;51.980;6.722;2022-09-09T02:43:48;3.55;;;1.88;;
64795;SDS011;51229;51.980;6.722;2022-09-09T02:46:26;3.67;;;1.83;;
64795;SDS011;51229;51.980;6.722;2022-09-09T02:49:09;3.00;;;1.60;;
64795;SDS011;51229;51.980;6.722;2022-09-09T02:54:37;3.65;;;2.10;;
64795;SDS011;51229;51.980;6.722;2022-09-09T02:57:08;3.55;;;1.70;;
64795;SDS011;51229;51.980;6.722;2022-09-09T02:59:38;4.22;;;1.90;;
64795;SDS011;51229;51.980;6.722;2022-09-09T03:02:05;3.00;;;1.75;;
64795;SDS011;51229;51.980;6.722;2022-09-09T03:04:31;2.85;;;1.75;;
64795;SDS011;51229;51.980;6.722;2022-09-09T03:06:58;4.20;;;1.95;;
64795;SDS011;51229;51.980;6.722;2022-09-09T03:09:24;4.30;;;1.95;;
64795;SDS011;51229;51.980;6.722;2022-09-09T03:11:51;3.55;;;1.70;;
64795;SDS011;51229;51.980;6.722;2022-09-09T03:14:18;3.25;;;1.50;;
64795;SDS011;51229;51.980;6.722;2022-09-09T03:16:47;4.22;;;2.10;;
64795;SDS011;51229;51.980;6.722;2022-09-09T03:19:13;3.45;;;1.60;;
64795;SDS011;51229;51.980;6.722;2022-09-09T03:21:40;4.28;;;2.10;;
64795;SDS011;51229;51.980;6.722;2022-09-09T03:24:05;4.00;;;1.98;;
64795;SDS011;51229;51.980;6.722;2022-09-09T03:26:32;4.60;;;2.20;;
64795;SDS011;51229;51.980;6.722;2022-09-09T03:28:59;3.38;;;1.60;;
64795;SDS011;51229;51.980;6.722;2022-09-09T03:31:26;6.18;;;2.25;;
64795;SDS011;51229;51.980;6.722;2022-09-09T03:33:56;5.25;;;2.58;;
64795;SDS011;51229;51.980;6.722;2022-09-09T03:36:24;5.75;;;2.65;;
64795;SDS011;51229;51.980;6.722;2022-09-09T03:38:51;5.82;;;3.08;;
64795;SDS011;51229;51.980;6.722;2022-09-09T03:41:17;5.25;;;2.80;;
64795;SDS011;51229;51.980;6.722;2022-09-09T03:43:43;6.18;;;3.17;;
64795;SDS011;51229;51.980;6.722;2022-09-09T03:46:09;5.68;;;2.90;;
64795;SDS011;51229;51.980;6.722;2022-09-09T03:48:36;6.40;;;4.07;;
64795;SDS011;51229;51.980;6.722;2022-09-09T03:51:03;6.60;;;3.35;;
64795;SDS011;51229;51.980;6.722;2022-09-09T03:53:31;7.53;;;3.72;;
64795;SDS011;51229;51.980;6.722;2022-09-09T03:55:57;7.10;;;3.88;;
64795;SDS011;51229;51.980;6.722;2022-09-09T03:58:26;5.50;;;3.58;;
64795;SDS011;51229;51.980;6.722;2022-09-09T04:00:57;7.10;;;3.67;;
64795;SDS011;51229;51.980;6.722;2022-09-09T04:03:25;5.13;;;2.88;;
64795;SDS011;51229;51.980;6.722;2022-09-09T04:05:51;6.07;;;3.10;;
64795;SDS011;51229;51.980;6.722;2022-09-09T04:08:19;8.98;;;3.88;;
64795;SDS011;51229;51.980;6.722;2022-09-09T04:10:49;6.25;;;4.20;;
64795;SDS011;51229;51.980;6.722;2022-09-09T04:13:16;6.35;;;4.10;;
64795;SDS011;51229;51.980;6.722;2022-09-09T04:15:44;4.72;;;2.95;;
64795;SDS011;51229;51.980;6.722;2022-09-09T04:18:15;6.90;;;2.95;;
64795;SDS011;51229;51.980;6.722;2022-09-09T04:20:41;5.65;;;3.53;;
64795;SDS011;51229;51.980;6.722;2022-09-09T04:23:08;3.88;;;2.42;;
64795;SDS011;51229;51.980;6.722;2022-09-09T04:25:34;6.10;;;4.25;;
64795;SDS011;51229;51.980;6.722;2022-09-09T04:28:00;5.50;;;3.72;;
64795;SDS011;51229;51.980;6.722;2022-09-09T04:30:26;6.07;;;4.10;;
64795;SDS011;51229;51.980;6.722;2022-09-09T04:32:52;5.25;;;3.38;;
64795;SDS011;51229;51.980;6.722;2022-09-09T04:35:18;6.70;;;3.70;;
64795;SDS011;51229;51.980;6.722;2022-09-09T04:37:45;5.50;;;3.47;;
64795;SDS011;51229;51.980;6.722;2022-09-09T04:40:11;7.20;;;4.28;;
64795;SDS011;51229;51.980;6.722;2022-09-09T04:42:37;6.47;;;3.95;;
64795;SDS011;51229;51.980;6.722;2022-09-09T04:45:04;4.60;;;2.58;;
64795;SDS011;51229;51.980;6.722;2022-09-09T04:47:32;7.88;;;4.35;;
64795;SDS011;51229;51.980;6.722;2022-09-09T04:49:58;4.28;;;1.95;;
64795;SDS011;51229;51.980;6.722;2022-09-09T04:52:25;7.60;;;4.28;;
64795;SDS011;51229;51.980;6.722;2022-09-09T04:54:51;7.03;;;3.92;;
64795;SDS011;51229;51.980;6.722;2022-09-09T04:57:19;5.60;;;3.88;;
64795;SDS011;51229;51.980;6.722;2022-09-09T04:59:46;6.10;;;4.43;;
64795;SDS011;51229;51.980;6.722;2022-09-09T05:02:13;9.18;;;3.92;;
64795;SDS011;51229;51.980;6.722;2022-09-09T05:04:39;6.97;;;3.72;;
64795;SDS011;51229;51.980;6.722;2022-09-09T05:07:06;6.28;;;3.95;;
64795;SDS011;51229;51.980;6.722;2022-09-09T05:09:31;6.25;;;3.50;;
64795;SDS011;51229;51.980;6.722;2022-09-09T05:11:59;7.80;;;3.92;;
64795;SDS011;51229;51.980;6.722;2022-09-09T05:14:29;8.07;;;3.83;;
64795;SDS011;51229;51.980;6.722;2022-09-09T05:16:55;7.28;;;4.15;;
64795;SDS011;51229;51.980;6.722;2022-09-09T05:19:22;5.30;;;3.55;;
64795;SDS011;51229;51.980;6.722;2022-09-09T05:21:48;7.28;;;4.20;;
64795;SDS011;51229;51.980;6.722;2022-09-09T05:24:18;7.85;;;3.97;;
64795;SDS011;51229;51.980;6.722;2022-09-09T05:26:45;6.03;;;3.70;;
64795;SDS011;51229;51.980;6.722;2022-09-09T05:29:11;8.10;;;3.30;;
64795;SDS011;51229;51.980;6.722;2022-09-09T05:31:37;6.20;;;3.40;;
64795;SDS011;51229;51.980;6.722;2022-09-09T05:34:08;6.43;;;3.13;;
64795;SDS011;51229;51.980;6.722;2022-09-09T05:36:34;6.20;;;3.15;;
64795;SDS011;51229;51.980;6.722;2022-09-09T05:38:59;8.82;;;4.18;;
64795;SDS011;51229;51.980;6.722;2022-09-09T05:41:27;6.28;;;3.38;;
64795;SDS011;51229;51.980;6.722;2022-09-09T05:43:55;6.05;;;3.45;;
64795;SDS011;51229;51.980;6.722;2022-09-09T05:46:22;7.05;;;3.00;;
64795;SDS011;51229;51.980;6.722;2022-09-09T05:48:51;6.70;;;3.10;;
64795;SDS011;51229;51.980;6.722;2022-09-09T05:51:21;6.40;;;2.70;;
64795;SDS011;51229;51.980;6.722;2022-09-09T05:53:49;5.93;;;3.35;;
64795;SDS011;51229;51.980;6.722;2022-09-09T05:56:17;5.75;;;3.38;;
64795;SDS011;51229;51.980;6.722;2022-09-09T05:58:45;8.10;;;3.17;;
64795;SDS011;51229;51.980;6.722;2022-09-09T06:01:17;9.02;;;3.50;;
64795;SDS011;51229;51.980;6.722;2022-09-09T06:03:49;5.95;;;2.80;;
64795;SDS011;51229;51.980;6.722;2022-09-09T06:06:17;7.75;;;3.40;;
64795;SDS011;51229;51.980;6.722;2022-09-09T06:08:46;6.80;;;3.38;;
64795;SDS011;51229;51.980;6.722;2022-09-09T06:11:16;5.43;;;2.45;;
64795;SDS011;51229;51.980;6.722;2022-09-09T06:13:47;8.23;;;2.53;;
64795;SDS011;51229;51.980;6.722;2022-09-09T06:16:16;9.93;;;3.20;;
64795;SDS011;51229;51.980;6.722;2022-09-09T06:18:43;6.78;;;2.80;;
64795;SDS011;51229;51.980;6.722;2022-09-09T06:21:15;7.45;;;3.22;;
64795;SDS011;51229;51.980;6.722;2022-09-09T06:23:41;7.72;;;2.83;;
64795;SDS011;51229;51.980;6.722;2022-09-09T06:26:12;7.13;;;3.20;;
64795;SDS011;51229;51.980;6.722;2022-09-09T06:28:41;6.60;;;2.85;;
64795;SDS011;51229;51.980;6.722;2022-09-09T06:31:09;5.25;;;2.30;;
64795;SDS011;51229;51.980;6.722;2022-09-09T06:33:37;6.50;;;2.95;;
64795;SDS011;51229;51.980;6.722;2022-09-09T06:36:51;6.63;;;2.92;;
64795;SDS011;51229;51.980;6.722;2022-09-09T06:38:54;8.05;;;2.90;;
64795;SDS011;51229;51.980;6.722;2022-09-09T06:41:20;8.80;;;2.83;;
64795;SDS011;51229;51.980;6.722;2022-09-09T06:43:48;10.90;;;3.22;;
64795;SDS011;51229;51.980;6.722;2022-09-09T06:46:16;7.63;;;3.10;;
64795;SDS011;51229;51.980;6.722;2022-09-09T06:48:48;6.57;;;2.63;;
64795;SDS011;51229;51.980;6.722;2022-09-09T06:53:44;7.75;;;2.72;;
64795;SDS011;51229;51.980;6.722;2022-09-09T06:58:50;8.20;;;2.80;;
64795;SDS011;51229;51.980;6.722;2022-09-09T07:01:26;9.23;;;2.80;;
64795;SDS011;51229;51.980;6.722;2022-09-09T07:06:25;8.82;;;2.88;;
64795;SDS011;51229;51.980;6.722;2022-09-09T07:08:58;9.02;;;2.85;;
64795;SDS011;51229;51.980;6.722;2022-09-09T07:11:28;5.30;;;2.40;;
64795;SDS011;51229;51.980;6.722;2022-09-09T07:13:56;7.30;;;2.75;;
64795;SDS011;51229;51.980;6.722;2022-09-09T07:16:24;5.40;;;2.55;;
64795;SDS011;51229;51.980;6.722;2022-09-09T07:18:53;7.38;;;2.75;;
64795;SDS011;51229;51.980;6.722;2022-09-09T07:21:24;5.60;;;2.30;;
64795;SDS011;51229;51.980;6.722;2022-09-09T07:23:52;4.53;;;2.33;;
64795;SDS011;51229;51.980;6.722;2022-09-09T07:26:19;6.60;;;2.45;;
64795;SDS011;51229;51.980;6.722;2022-09-09T07:28:46;7.72;;;2.45;;
64795;SDS011;51229;51.980;6.722;2022-09-09T07:31:17;6.32;;;2.47;;
64795;SDS011;51229;51.980;6.722;2022-09-09T07:33:46;7.63;;;2.65;;
64795;SDS011;51229;51.980;6.722;2022-09-09T07:36:13;7.50;;;2.33;;
64795;SDS011;51229;51.980;6.722;2022-09-09T07:38:41;5.70;;;2.10;;
64795;SDS011;51229;51.980;6.722;2022-09-09T07:41:11;6.50;;;2.55;;
64795;SDS011;51229;51.980;6.722;2022-09-09T07:43:39;7.43;;;2.50;;
64795;SDS011;51229;51.980;6.722;2022-09-09T07:46:07;5.45;;;2.25;;
64795;SDS011;51229;51.980;6.722;2022-09-09T07:48:34;7.07;;;2.40;;
64795;SDS011;51229;51.980;6.722;2022-09-09T07:53:31;8.50;;;1.98;;
64795;SDS011;51229;51.980;6.722;2022-09-09T07:56:02;5.15;;;2.05;;
64795;SDS011;51229;51.980;6.722;2022-09-09T07:58:30;7.80;;;2.50;;
64795;SDS011;51229;51.980;6.722;2022-09-09T08:00:55;4.93;;;2.10;;
64795;SDS011;51229;51.980;6.722;2022-09-09T08:03:23;5.75;;;1.98;;
64795;SDS011;51229;51.980;6.722;2022-09-09T08:05:49;7.65;;;2.10;;
64795;SDS011;51229;51.980;6.722;2022-09-09T08:08:15;6.78;;;2.35;;
64795;SDS011;51229;51.980;6.722;2022-09-09T08:10:42;8.70;;;2.15;;
64795;SDS011;51229;51.980;6.722;2022-09-09T08:13:09;9.55;;;2.42;;
64795;SDS011;51229;51.980;6.722;2022-09-09T08:15:35;6.75;;;2.28;;
64795;SDS011;51229;51.980;6.722;2022-09-09T08:18:02;5.95;;;1.95;;
64795;SDS011;51229;51.980;6.722;2022-09-09T08:20:29;9.18;;;2.25;;
64795;SDS011;51229;51.980;6.722;2022-09-09T08:22:55;4.25;;;1.67;;
64795;SDS011;51229;51.980;6.722;2022-09-09T08:25:21;6.30;;;1.80;;
64795;SDS011;51229;51.980;6.722;2022-09-09T08:27:47;8.07;;;2.20;;
64795;SDS011;51229;51.980;6.722;2022-09-09T08:30:12;8.30;;;2.15;;
64795;SDS011;51229;51.980;6.722;2022-09-09T08:32:39;7.82;;;2.40;;
64795;SDS011;51229;51.980;6.722;2022-09-09T08:35:06;7.60;;;1.98;;
64795;SDS011;51229;51.980;6.722;2022-09-09T08:37:32;7.53;;;2.13;;
64795;SDS011;51229;51.980;6.722;2022-09-09T08:39:58;8.85;;;1.75;;
64795;SDS011;51229;51.980;6.722;2022-09-09T08:42:27;5.28;;;2.03;;
64795;SDS011;51229;51.980;6.722;2022-09-09T08:45:02;5.15;;;1.65;;
64795;SDS011;51229;51.980;6.722;2022-09-09T08:55:44;7.47;;;1.65;;
64795;SDS011;51229;51.980;6.722;2022-09-09T08:58:21;7.38;;;1.60;;
64795;SDS011;51229;51.980;6.722;2022-09-09T09:03:30;8.27;;;1.90;;
64795;SDS011;51229;51.980;6.722;2022-09-09T09:09:15;5.85;;;1.60;;
64795;SDS011;51229;51.980;6.722;2022-09-09T09:12:19;5.75;;;1.67;;
64795;SDS011;51229;51.980;6.722;2022-09-09T09:14:48;7.85;;;1.80;;
64795;SDS011;51229;51.980;6.722;2022-09-09T09:17:17;8.48;;;1.90;;
64795;SDS011;51229;51.980;6.722;2022-09-09T09:19:46;4.97;;;1.70;;
64795;SDS011;51229;51.980;6.722;2022-09-09T09:22:20;7.68;;;1.67;;
64795;SDS011;51229;51.980;6.722;2022-09-09T09:25:13;6.43;;;1.98;;
64795;SDS011;51229;51.980;6.722;2022-09-09T09:27:44;4.90;;;1.50;;
64795;SDS011;51229;51.980;6.722;2022-09-09T09:30:36;3.05;;;1.17;;
64795;SDS011;51229;51.980;6.722;2022-09-09T09:33:14;6.20;;;1.85;;
64795;SDS011;51229;51.980;6.722;2022-09-09T09:35:43;9.02;;;1.73;;
64795;SDS011;51229;51.980;6.722;2022-09-09T09:38:20;5.72;;;1.50;;
64795;SDS011;51229;51.980;6.722;2022-09-09T09:40:59;4.13;;;1.40;;
64795;SDS011;51229;51.980;6.722;2022-09-09T09:43:27;4.50;;;1.40;;
64795;SDS011;51229;51.980;6.722;2022-09-09T09:45:56;6.70;;;1.42;;
64795;SDS011;51229;51.980;6.722;2022-09-09T09:48:24;5.32;;;1.20;;
64795;SDS011;51229;51.980;6.722;2022-09-09T09:50:55;4.65;;;1.27;;
64795;SDS011;51229;51.980;6.722;2022-09-09T09:53:28;5.50;;;1.33;;
64795;SDS011;51229;51.980;6.722;2022-09-09T09:56:00;6.75;;;1.67;;
64795;SDS011;51229;51.980;6.722;2022-09-09T09:59:18;6.50;;;1.70;;
64795;SDS011;51229;51.980;6.722;2022-09-09T10:01:38;4.03;;;1.40;;
64795;SDS011;51229;51.980;6.722;2022-09-09T10:04:16;2.35;;;1.00;;
64795;SDS011;51229;51.980;6.722;2022-09-09T10:06:45;3.67;;;1.40;;
64795;SDS011;51229;51.980;6.722;2022-09-09T10:11:54;3.60;;;1.25;;
64795;SDS011;51229;51.980;6.722;2022-09-09T10:14:37;4.53;;;1.50;;
64795;SDS011;51229;51.980;6.722;2022-09-09T10:17:33;5.45;;;1.50;;
64795;SDS011;51229;51.980;6.722;2022-09-09T10:20:12;7.68;;;1.77;;
64795;SDS011;51229;51.980;6.722;2022-09-09T10:22:50;4.25;;;1.45;;
64795;SDS011;51229;51.980;6.722;2022-09-09T10:38:39;4.68;;;1.40;;
64795;SDS011;51229;51.980;6.722;2022-09-09T10:44:14;5.45;;;1.48;;
64795;SDS011;51229;51.980;6.722;2022-09-09T10:50:29;5.47;;;1.50;;
64795;SDS011;51229;51.980;6.722;2022-09-09T10:55:40;6.10;;;1.50;;
64795;SDS011;51229;51.980;6.722;2022-09-09T10:58:33;4.15;;;1.33;;
64795;SDS011;51229;51.980;6.722;2022-09-09T11:01:23;3.95;;;1.40;;
64795;SDS011;51229;51.980;6.722;2022-09-09T11:04:32;7.60;;;1.70;;
64795;SDS011;51229;51.980;6.722;2022-09-09T11:07:01;3.42;;;1.30;;
64795;SDS011;51229;51.980;6.722;2022-09-09T11:09:37;4.50;;;1.30;;
64795;SDS011;51229;51.980;6.722;2022-09-09T11:12:09;6.32;;;1.77;;
64795;SDS011;51229;51.980;6.722;2022-09-09T11:14:42;4.03;;;1.20;;
64795;SDS011;51229;51.980;6.722;2022-09-09T11:17:15;5.57;;;1.52;;
64795;SDS011;51229;51.980;6.722;2022-09-09T11:36:16;7.22;;;1.30;;
64795;SDS011;51229;51.980;6.722;2022-09-09T11:41:47;8.65;;;2.42;;
64795;SDS011;51229;51.980;6.722;2022-09-09T11:44:16;3.40;;;1.30;;
64795;SDS011;51229;51.980;6.722;2022-09-09T11:46:46;3.70;;;1.30;;
64795;SDS011;51229;51.980;6.722;2022-09-09T11:49:29;4.97;;;1.40;;
64795;SDS011;51229;51.980;6.722;2022-09-09T11:54:47;4.55;;;1.30;;
64795;SDS011;51229;51.980;6.722;2022-09-09T11:57:34;4.95;;;1.45;;
64795;SDS011;51229;51.980;6.722;2022-09-09T12:00:01;3.97;;;1.30;;
64795;SDS011;51229;51.980;6.722;2022-09-09T12:02:37;3.08;;;1.25;;
64795;SDS011;51229;51.980;6.722;2022-09-09T12:05:15;2.40;;;1.10;;
64795;SDS011;51229;51.980;6.722;2022-09-09T12:07:51;8.18;;;1.50;;
64795;SDS011;51229;51.980;6.722;2022-09-09T12:10:34;2.53;;;1.00;;
64795;SDS011;51229;51.980;6.722;2022-09-09T12:18:21;4.00;;;1.60;;
64795;SDS011;51229;51.980;6.722;2022-09-09T12:23:40;4.15;;;1.17;;
64795;SDS011;51229;51.980;6.722;2022-09-09T12:26:25;4.03;;;1.33;;
64795;SDS011;51229;51.980;6.722;2022-09-09T12:34:23;3.10;;;1.00;;
64795;SDS011;51229;51.980;6.722;2022-09-09T12:37:27;3.60;;;0.93;;
64795;SDS011;51229;51.980;6.722;2022-09-09T12:40:04;2.45;;;1.02;;
64795;SDS011;51229;51.980;6.722;2022-09-09T12:42:44;3.38;;;1.25;;
64795;SDS011;51229;51.980;6.722;2022-09-09T12:48:09;3.13;;;1.10;;
64795;SDS011;51229;51.980;6.722;2022-09-09T12:50:47;3.55;;;1.30;;
64795;SDS011;51229;51.980;6.722;2022-09-09T12:53:22;5.78;;;1.48;;
64795;SDS011;51229;51.980;6.722;2022-09-09T12:55:57;4.03;;;1.27;;
64795;SDS011;51229;51.980;6.722;2022-09-09T12:58:24;6.05;;;1.48;;
64795;SDS011;51229;51.980;6.722;2022-09-09T13:00:54;6.60;;;1.30;;
64795;SDS011;51229;51.980;6.722;2022-09-09T13:03:25;4.68;;;1.40;;
64795;SDS011;51229;51.980;6.722;2022-09-09T13:05:51;4.13;;;1.33;;
64795;SDS011;51229;51.980;6.722;2022-09-09T13:08:18;4.05;;;1.23;;
64795;SDS011;51229;51.980;6.722;2022-09-09T13:11:01;3.85;;;1.40;;
64795;SDS011;51229;51.980;6.722;2022-09-09T13:13:38;4.32;;;1.17;;
64795;SDS011;51229;51.980;6.722;2022-09-09T13:16:15;3.25;;;1.10;;
64795;SDS011;51229;51.980;6.722;2022-09-09T13:18:48;5.35;;;1.23;;
64795;SDS011;51229;51.980;6.722;2022-09-09T13:21:15;3.55;;;1.30;;
64795;SDS011;51229;51.980;6.722;2022-09-09T13:23:40;4.00;;;1.20;;
64795;SDS011;51229;51.980;6.722;2022-09-09T13:26:19;4.22;;;1.33;;
64795;SDS011;51229;51.980;6.722;2022-09-09T13:28:48;3.22;;;1.48;;
64795;SDS011;51229;51.980;6.722;2022-09-09T13:31:22;5.63;;;1.65;;
64795;SDS011;51229;51.980;6.722;2022-09-09T13:33:55;3.58;;;1.42;;
64795;SDS011;51229;51.980;6.722;2022-09-09T13:36:28;4.65;;;1.85;;
64795;SDS011;51229;51.980;6.722;2022-09-09T13:38:56;3.38;;;1.40;;
64795;SDS011;51229;51.980;6.722;2022-09-09T13:41:32;3.70;;;1.60;;
64795;SDS011;51229;51.980;6.722;2022-09-09T13:43:59;5.18;;;1.88;;
64795;SDS011;51229;51.980;6.722;2022-09-09T13:51:36;4.72;;;1.70;;
64795;SDS011;51229;51.980;6.722;2022-09-09T13:54:05;5.03;;;2.03;;
64795;SDS011;51229;51.980;6.722;2022-09-09T13:56:34;4.47;;;1.73;;
64795;SDS011;51229;51.980;6.722;2022-09-09T13:59:01;5.60;;;2.00;;
64795;SDS011;51229;51.980;6.722;2022-09-09T14:01:27;5.97;;;1.70;;
64795;SDS011;51229;51.980;6.722;2022-09-09T14:03:53;5.30;;;1.95;;
64795;SDS011;51229;51.980;6.722;2022-09-09T14:06:19;4.50;;;1.70;;
64795;SDS011;51229;51.980;6.722;2022-09-09T14:08:47;4.95;;;1.90;;
64795;SDS011;51229;51.980;6.722;2022-09-09T14:11:15;3.88;;;1.73;;
64795;SDS011;51229;51.980;6.722;2022-09-09T14:13:41;5.40;;;1.70;;
64795;SDS011;51229;51.980;6.722;2022-09-09T14:16:06;4.55;;;1.50;;
64795;SDS011;51229;51.980;6.722;2022-09-09T14:18:32;4.32;;;1.85;;
64795;SDS011;51229;51.980;6.722;2022-09-09T14:20:59;5.88;;;1.70;;
64795;SDS011;51229;51.980;6.722;2022-09-09T14:23:24;4.40;;;1.75;;
64795;SDS011;51229;51.980;6.722;2022-09-09T14:25:50;4.00;;;1.73;;
64795;SDS011;51229;51.980;6.722;2022-09-09T14:28:16;5.93;;;1.83;;
64795;SDS011;51229;51.980;6.722;2022-09-09T14:30:42;5.10;;;1.98;;
64795;SDS011;51229;51.980;6.722;2022-09-09T14:33:10;3.75;;;1.58;;
64795;SDS011;51229;51.980;6.722;2022-09-09T14:35:37;4.90;;;1.80;;
64795;SDS011;51229;51.980;6.722;2022-09-09T14:38:04;5.88;;;1.67;;
64795;SDS011;51229;51.980;6.722;2022-09-09T14:40:30;4.47;;;1.77;;
64795;SDS011;51229;51.980;6.722;2022-09-09T14:42:56;4.05;;;1.90;;
64795;SDS011;51229;51.980;6.722;2022-09-09T14:45:22;5.50;;;1.90;;
64795;SDS011;51229;51.980;6.722;2022-09-09T14:47:50;5.50;;;1.67;;
64795;SDS011;51229;51.980;6.722;2022-09-09T14:50:16;5.10;;;1.75;;
64795;SDS011;51229;51.980;6.722;2022-09-09T14:52:42;4.38;;;1.90;;
64795;SDS011;51229;51.980;6.722;2022-09-09T14:55:08;5.25;;;1.85;;
64795;SDS011;51229;51.980;6.722;2022-09-09T14:57:34;6.05;;;1.80;;
64795;SDS011;51229;51.980;6.722;2022-09-09T15:00:01;3.20;;;1.45;;
64795;SDS011;51229;51.980;6.722;2022-09-09T15:02:29;5.25;;;1.60;;
64795;SDS011;51229;51.980;6.722;2022-09-09T15:04:55;4.65;;;1.70;;
64795;SDS011;51229;51.980;6.722;2022-09-09T15:07:23;5.80;;;1.60;;
64795;SDS011;51229;51.980;6.722;2022-09-09T15:09:49;4.22;;;1.60;;
64795;SDS011;51229;51.980;6.722;2022-09-09T15:12:15;5.35;;;1.60;;
64795;SDS011;51229;51.980;6.722;2022-09-09T15:14:43;3.92;;;1.67;;
64795;SDS011;51229;51.980;6.722;2022-09-09T15:17:10;4.32;;;1.52;;
64795;SDS011;51229;51.980;6.722;2022-09-09T15:19:36;5.65;;;1.70;;
64795;SDS011;51229;51.980;6.722;2022-09-09T15:22:02;4.18;;;1.58;;
64795;SDS011;51229;51.980;6.722;2022-09-09T15:24:30;4.75;;;1.50;;
64795;SDS011;51229;51.980;6.722;2022-09-09T15:26:57;5.30;;;1.50;;
64795;SDS011;51229;51.980;6.722;2022-09-09T15:29:23;4.95;;;1.75;;
64795;SDS011;51229;51.980;6.722;2022-09-09T15:31:49;5.28;;;1.60;;
64795;SDS011;51229;51.980;6.722;2022-09-09T15:34:15;3.53;;;1.40;;
64795;SDS011;51229;51.980;6.722;2022-09-09T15:36:41;5.25;;;1.50;;
64795;SDS011;51229;51.980;6.722;2022-09-09T15:39:13;4.15;;;1.50;;
64795;SDS011;51229;51.980;6.722;2022-09-09T15:41:46;5.50;;;1.65;;
64795;SDS011;51229;51.980;6.722;2022-09-09T15:44:13;5.43;;;1.70;;
64795;SDS011;51229;51.980;6.722;2022-09-09T15:46:44;4.07;;;1.50;;
64795;SDS011;51229;51.980;6.722;2022-09-09T15:49:15;6.70;;;1.85;;
64795;SDS011;51229;51.980;6.722;2022-09-09T15:51:43;3.90;;;1.38;;
64795;SDS011;51229;51.980;6.722;2022-09-09T15:54:12;4.95;;;1.70;;
64795;SDS011;51229;51.980;6.722;2022-09-09T15:56:40;3.35;;;1.30;;
64795;SDS011;51229;51.980;6.722;2022-09-09T15:59:06;3.00;;;1.30;;
64795;SDS011;51229;51.980;6.722;2022-09-09T16:01:32;3.90;;;1.30;;
64795;SDS011;51229;51.980;6.722;2022-09-09T16:03:58;3.55;;;1.30;;
64795;SDS011;51229;51.980;6.722;2022-09-09T16:06:25;3.45;;;1.20;;
64795;SDS011;51229;51.980;6.722;2022-09-09T16:08:53;2.95;;;1.38;;
64795;SDS011;51229;51.980;6.722;2022-09-09T16:11:23;3.45;;;1.30;;
64795;SDS011;51229;51.980;6.722;2022-09-09T16:13:54;5.47;;;1.50;;
64795;SDS011;51229;51.980;6.722;2022-09-09T16:16:21;2.17;;;1.10;;
64795;SDS011;51229;51.980;6.722;2022-09-09T16:18:53;4.63;;;1.50;;
64795;SDS011;51229;51.980;6.722;2022-09-09T16:21:25;5.00;;;1.45;;
64795;SDS011;51229;51.980;6.722;2022-09-09T16:24:02;4.10;;;1.40;;
64795;SDS011;51229;51.980;6.722;2022-09-09T16:26:30;3.10;;;1.42;;
64795;SDS011;51229;51.980;6.722;2022-09-09T16:28:58;3.15;;;1.45;;
64795;SDS011;51229;51.980;6.722;2022-09-09T16:31:25;3.60;;;1.50;;
64795;SDS011;51229;51.980;6.722;2022-09-09T16:33:52;5.00;;;1.40;;
64795;SDS011;51229;51.980;6.722;2022-09-09T16:36:25;3.53;;;1.42;;
64795;SDS011;51229;51.980;6.722;2022-09-09T16:39:00;4.45;;;1.45;;
64795;SDS011;51229;51.980;6.722;2022-09-09T16:41:31;4.93;;;1.40;;
64795;SDS011;51229;51.980;6.722;2022-09-09T16:43:59;4.35;;;1.55;;
64795;SDS011;51229;51.980;6.722;2022-09-09T16:46:28;4.45;;;1.52;;
64795;SDS011;51229;51.980;6.722;2022-09-09T16:48:58;3.35;;;1.50;;
64795;SDS011;51229;51.980;6.722;2022-09-09T16:51:26;2.88;;;1.27;;
64795;SDS011;51229;51.980;6.722;2022-09-09T16:53:53;2.67;;;1.27;;
64795;SDS011;51229;51.980;6.722;2022-09-09T16:56:24;5.18;;;1.77;;
64795;SDS011;51229;51.980;6.722;2022-09-09T16:58:52;4.30;;;1.50;;
64795;SDS011;51229;51.980;6.722;2022-09-09T17:01:20;5.28;;;1.85;;
64795;SDS011;51229;51.980;6.722;2022-09-09T17:03:53;3.67;;;1.60;;
64795;SDS011;51229;51.980;6.722;2022-09-09T17:06:20;4.70;;;1.92;;
64795;SDS011;51229;51.980;6.722;2022-09-09T17:08:46;4.03;;;1.67;;
64795;SDS011;51229;51.980;6.722;2022-09-09T17:11:17;4.88;;;1.52;;
64795;SDS011;51229;51.980;6.722;2022-09-09T17:13:47;5.55;;;1.80;;
64795;SDS011;51229;51.980;6.722;2022-09-09T17:16:14;3.13;;;1.50;;
64795;SDS011;51229;51.980;6.722;2022-09-09T17:18:41;4.47;;;1.73;;
64795;SDS011;51229;51.980;6.722;2022-09-09T17:21:08;4.25;;;1.92;;
64795;SDS011;51229;51.980;6.722;2022-09-09T17:23:36;4.63;;;1.83;;
64795;SDS011;51229;51.980;6.722;2022-09-09T17:26:04;3.95;;;1.83;;
64795;SDS011;51229;51.980;6.722;2022-09-09T17:28:33;5.43;;;1.73;;
64795;SDS011;51229;51.980;6.722;2022-09-09T17:30:59;4.47;;;1.70;;
64795;SDS011;51229;51.980;6.722;2022-09-09T17:33:28;4.95;;;2.15;;